createdAt,value
2023-11-08T00:01:43.839Z,98585.94
2023-11-08T00:04:11.282Z,98580.34
2023-11-08T00:06:38.728Z,98583.00
2023-11-08T00:09:06.451Z,98581.41
2023-11-08T00:11:33.651Z,98577.66
2023-11-08T00:14:00.757Z,98588.03
2023-11-08T00:16:28.748Z,98586.22
2023-11-08T00:18:55.927Z,98572.69
2023-11-08T00:21:25.158Z,98581.78
2023-11-08T00:23:52.778Z,98571.28
2023-11-08T00:26:19.874Z,98574.44
2023-11-08T00:28:49.672Z,98579.44
2023-11-08T00:31:17.372Z,98580.72
2023-11-08T00:33:44.463Z,98580.47
2023-11-08T00:36:11.466Z,98581.88
2023-11-08T00:38:39.973Z,98581.53
2023-11-08T00:41:06.983Z,98580.00
2023-11-08T00:43:34.888Z,98578.31
2023-11-08T00:46:03.833Z,98580.75
2023-11-08T00:48:31.030Z,98584.00
2023-11-08T00:50:58.142Z,98591.03
2023-11-08T00:53:25.540Z,98581.94
2023-11-08T00:55:52.638Z,98592.66
2023-11-08T00:58:19.865Z,98592.88
2023-11-08T01:00:47.111Z,98591.03
2023-11-08T01:03:14.470Z,98595.94
2023-11-08T01:05:43.133Z,98595.47
2023-11-08T01:08:13.189Z,98593.00
2023-11-08T01:10:42.071Z,98589.75
2023-11-08T01:13:10.611Z,98582.00
2023-11-08T01:15:41.243Z,98580.59
2023-11-08T01:18:08.788Z,98587.22
2023-11-08T01:20:35.893Z,98584.19
2023-11-08T01:23:05.331Z,98593.25
2023-11-08T01:25:32.355Z,98589.16
2023-11-08T01:27:59.748Z,98578.44
2023-11-08T01:30:26.905Z,98584.06
2023-11-08T01:32:56.205Z,98583.47
2023-11-08T01:35:24.034Z,98581.59
2023-11-08T01:37:51.042Z,98585.94
2023-11-08T01:40:19.671Z,98581.38
2023-11-08T01:42:47.645Z,98586.13
2023-11-08T01:45:15.106Z,98579.38
2023-11-08T01:47:42.304Z,98587.19
2023-11-08T01:50:10.687Z,98576.91
2023-11-08T01:52:38.728Z,98577.16
2023-11-08T01:55:06.154Z,98580.28
2023-11-08T01:57:33.346Z,98581.91
2023-11-08T02:00:01.049Z,98598.19
2023-11-08T02:02:29.206Z,98588.88
2023-11-08T02:04:56.418Z,98588.88
2023-11-08T02:07:23.905Z,98586.22
2023-11-08T02:09:51.150Z,98582.72
2023-11-08T02:12:18.201Z,98588.69
2023-11-08T02:15:05.116Z,98584.78
2023-11-08T02:17:45.447Z,98593.44
2023-11-08T02:20:12.923Z,98599.03
2023-11-08T02:22:39.828Z,98587.72
2023-11-08T02:25:07.197Z,98597.16
2023-11-08T02:27:34.311Z,98597.16
2023-11-08T02:30:01.318Z,98586.44
2023-11-08T02:32:35.329Z,98588.53
2023-11-08T02:35:02.446Z,98578.31
2023-11-08T02:37:31.999Z,98594.03
2023-11-08T02:39:59.299Z,98593.06
2023-11-08T02:42:26.329Z,98593.47
2023-11-08T02:44:53.375Z,98598.63
2023-11-08T02:47:20.698Z,98586.28
2023-11-08T02:49:48.734Z,98587.91
2023-11-08T02:52:16.835Z,98578.25
2023-11-08T02:54:43.899Z,98584.44
2023-11-08T02:57:10.960Z,98589.94
2023-11-08T02:59:39.817Z,98581.09
2023-11-08T03:02:07.450Z,98593.22
2023-11-08T03:04:34.798Z,98595.66
2023-11-08T03:07:07.769Z,98595.44
2023-11-08T03:09:35.678Z,98589.03
2023-11-08T03:12:04.149Z,98587.75
2023-11-08T03:14:31.438Z,98593.72
2023-11-08T03:17:01.559Z,98600.13
2023-11-08T03:19:28.750Z,98610.84
2023-11-08T03:21:55.803Z,98603.00
2023-11-08T03:24:22.966Z,98604.06
2023-11-08T03:26:50.745Z,98607.16
2023-11-08T03:29:21.588Z,98613.44
2023-11-08T03:31:49.076Z,98614.25
2023-11-08T03:34:16.269Z,98606.44
2023-11-08T03:36:44.458Z,98611.56
2023-11-08T03:39:11.822Z,98606.00
2023-11-08T03:41:39.117Z,98613.78
2023-11-08T03:44:07.135Z,98613.22
2023-11-08T03:46:34.346Z,98609.94
2023-11-08T03:49:02.766Z,98611.41
2023-11-08T03:51:30.660Z,98609.78
2023-11-08T03:53:58.170Z,98601.97
2023-11-08T03:56:28.545Z,98607.78
2023-11-08T03:58:55.674Z,98615.56
2023-11-08T04:01:22.764Z,98619.28
2023-11-08T04:03:49.890Z,98620.56
2023-11-08T04:06:17.023Z,98619.75
2023-11-08T04:08:44.138Z,98614.00
2023-11-08T04:11:11.200Z,98628.81
2023-11-08T04:13:38.196Z,98625.97
2023-11-08T04:16:05.892Z,98621.47
2023-11-08T04:18:34.667Z,98627.63
2023-11-08T04:21:05.109Z,98629.03
2023-11-08T04:23:32.266Z,98630.50
2023-11-08T04:25:59.356Z,98632.38
2023-11-08T04:28:26.405Z,98628.06
2023-11-08T04:30:53.540Z,98629.03
2023-11-08T04:33:20.680Z,98632.31
2023-11-08T04:35:47.691Z,98625.91
2023-11-08T04:38:15.333Z,98638.25
2023-11-08T04:40:42.375Z,98633.75
2023-11-08T04:43:09.454Z,98632.88
2023-11-08T04:45:37.942Z,98633.50
2023-11-08T04:48:05.911Z,98629.41
2023-11-08T04:50:33.300Z,98630.47
2023-11-08T04:53:00.788Z,98625.56
2023-11-08T04:55:28.672Z,98641.31
2023-11-08T04:57:55.782Z,98634.16
2023-11-08T05:00:23.109Z,98640.72
2023-11-08T05:02:50.215Z,98639.91
2023-11-08T05:05:17.417Z,98637.69
2023-11-08T05:07:45.254Z,98643.59
2023-11-08T05:10:14.627Z,98640.13
2023-11-08T05:12:41.724Z,98637.22
2023-11-08T05:15:10.679Z,98646.69
2023-11-08T05:17:38.849Z,98643.19
2023-11-08T05:20:10.317Z,98647.94
2023-11-08T05:22:40.090Z,98657.38
2023-11-08T05:25:07.765Z,98646.53
2023-11-08T05:27:36.140Z,98652.03
2023-11-08T05:30:06.037Z,98645.88
2023-11-08T05:32:33.209Z,98662.53
2023-11-08T05:35:00.906Z,98649.34
2023-11-08T05:37:28.028Z,98661.28
2023-11-08T05:39:55.444Z,98648.31
2023-11-08T05:42:24.283Z,98662.44
2023-11-08T05:44:52.041Z,98665.13
2023-11-08T05:47:19.073Z,98664.91
2023-11-08T05:49:46.306Z,98668.19
2023-11-08T05:52:14.793Z,98667.13
2023-11-08T05:54:41.892Z,98668.25
2023-11-08T05:57:08.946Z,98674.13
2023-11-08T05:59:36.932Z,98674.38
2023-11-08T06:02:04.910Z,98674.38
2023-11-08T06:04:33.603Z,98664.97
2023-11-08T06:07:01.004Z,98677.50
2023-11-08T06:09:29.360Z,98682.59
2023-11-08T06:11:56.499Z,98683.56
2023-11-08T06:14:23.849Z,98685.22
2023-11-08T06:16:51.640Z,98684.19
2023-11-08T06:19:24.145Z,98688.72
2023-11-08T06:21:51.682Z,98692.22
2023-11-08T06:24:18.730Z,98683.56
2023-11-08T06:26:45.867Z,98680.09
2023-11-08T06:29:13.043Z,98692.41
2023-11-08T06:31:41.693Z,98692.81
2023-11-08T06:34:11.686Z,98689.94
2023-11-08T06:36:38.901Z,98688.44
2023-11-08T06:39:06.217Z,98689.88
2023-11-08T06:41:33.327Z,98685.13
2023-11-08T06:44:00.371Z,98684.91
2023-11-08T06:46:27.837Z,98696.94
2023-11-08T06:48:59.042Z,98690.91
2023-11-08T06:51:26.482Z,98689.59
2023-11-08T06:53:53.595Z,98705.28
2023-11-08T06:56:20.934Z,98690.91
2023-11-08T06:58:48.038Z,98690.31
2023-11-08T07:01:15.562Z,98694.72
2023-11-08T07:03:42.966Z,98696.56
2023-11-08T07:06:10.405Z,98693.44
2023-11-08T07:08:38.438Z,98697.97
2023-11-08T07:11:08.218Z,98699.63
2023-11-08T07:13:35.660Z,98706.25
2023-11-08T07:16:03.938Z,98693.94
2023-11-08T07:18:31.317Z,98694.59
2023-11-08T07:20:59.471Z,98697.84
2023-11-08T07:23:26.541Z,98698.44
2023-11-08T07:25:55.847Z,98699.63
2023-11-08T07:28:23.130Z,98701.53
2023-11-08T07:30:50.278Z,98700.03
2023-11-08T07:33:19.269Z,98701.19
2023-11-08T07:35:48.613Z,98701.81
2023-11-08T07:38:16.319Z,98705.53
2023-11-08T07:40:43.741Z,98708.56
2023-11-08T07:43:10.968Z,98702.81
2023-11-08T07:45:38.142Z,98710.03
2023-11-08T07:48:05.586Z,98705.94
2023-11-08T07:50:32.699Z,98712.59
2023-11-08T07:52:59.738Z,98719.00
2023-11-08T07:55:26.911Z,98714.59
2023-11-08T07:57:54.101Z,98720.31
2023-11-08T08:00:24.108Z,98722.84
2023-11-08T08:02:51.579Z,98728.09
2023-11-08T08:05:19.089Z,98733.44
2023-11-08T08:07:46.461Z,98726.72
2023-11-08T08:10:14.122Z,98731.03
2023-11-08T08:12:47.705Z,98737.47
2023-11-08T08:15:18.101Z,98725.81
2023-11-08T08:17:47.212Z,98737.81
2023-11-08T08:20:14.698Z,98733.66
2023-11-08T08:22:41.846Z,98729.44
2023-11-08T08:25:18.324Z,98730.28
2023-11-08T08:27:46.650Z,98729.44
2023-11-08T08:30:16.454Z,98731.19
2023-11-08T08:32:46.962Z,98734.81
2023-11-08T08:35:14.867Z,98736.09
2023-11-08T08:37:42.490Z,98746.47
2023-11-08T08:40:12.586Z,98758.00
2023-11-08T08:42:41.308Z,98740.50
2023-11-08T08:45:11.807Z,98733.72
2023-11-08T08:48:01.780Z,98747.53
2023-11-08T08:50:30.737Z,98749.47
2023-11-08T08:52:58.124Z,98748.41
2023-11-08T08:55:26.199Z,98746.19
2023-11-08T08:57:55.137Z,98749.00
2023-11-08T09:00:24.472Z,98752.19
2023-11-08T09:02:52.820Z,98752.09
2023-11-08T09:05:23.790Z,98753.28
2023-11-08T09:07:52.796Z,98747.81
2023-11-08T09:10:22.919Z,98747.25
2023-11-08T09:12:51.384Z,98743.81
2023-11-08T09:15:21.435Z,98739.59
2023-11-08T09:17:48.921Z,98740.16
2023-11-08T09:20:18.004Z,98742.72
2023-11-08T09:22:45.620Z,98741.22
2023-11-08T09:25:14.742Z,98737.81
2023-11-08T09:27:42.226Z,98741.91
2023-11-08T09:30:11.057Z,98742.53
2023-11-08T09:32:40.356Z,98745.56
2023-11-08T09:35:12.713Z,98739.50
2023-11-08T09:37:42.510Z,98741.75
2023-11-08T09:40:12.371Z,98750.63
2023-11-08T09:42:40.744Z,98742.34
2023-11-08T09:45:13.075Z,98747.03
2023-11-08T09:47:45.106Z,98742.09
2023-11-08T09:50:16.379Z,98748.19
2023-11-08T09:52:44.279Z,98750.75
2023-11-08T09:55:15.402Z,98745.72
2023-11-08T09:57:47.009Z,98746.41
2023-11-08T10:00:16.464Z,98748.84
2023-11-08T10:02:44.021Z,98737.66
2023-11-08T10:05:13.953Z,98736.81
2023-11-08T10:07:44.907Z,98741.97
2023-11-08T10:10:12.254Z,98739.19
2023-11-08T10:13:03.268Z,98734.75
2023-11-08T10:15:32.015Z,98737.56
2023-11-08T10:19:32.162Z,98741.16
2023-11-08T10:21:02.739Z,98734.03
2023-11-08T10:23:32.378Z,98720.94
2023-11-08T10:26:19.781Z,98722.94
2023-11-08T10:29:09.072Z,98710.94
2023-11-08T10:31:38.850Z,98733.72
2023-11-08T10:34:10.744Z,98723.88
2023-11-08T10:36:39.704Z,98728.31
2023-11-08T10:39:08.262Z,98726.44
2023-11-08T10:41:38.467Z,98723.88
2023-11-08T10:44:09.220Z,98728.69
2023-11-08T10:46:37.130Z,98723.63
2023-11-08T10:49:07.794Z,98724.69
2023-11-08T10:51:40.736Z,98711.38
2023-11-08T10:54:11.667Z,98713.13
2023-11-08T10:56:39.575Z,98705.56
2023-11-08T10:59:11.124Z,98704.81
2023-11-08T11:01:41.182Z,98716.75
2023-11-08T11:04:16.578Z,98707.41
2023-11-08T11:06:44.998Z,98709.97
2023-11-08T11:09:12.593Z,98716.75
2023-11-08T11:11:47.121Z,98704.59
2023-11-08T11:14:29.362Z,98728.09
2023-11-08T11:17:20.361Z,98719.81
2023-11-08T11:19:49.062Z,98724.47
2023-11-08T11:22:23.557Z,98726.56
2023-11-08T11:24:51.877Z,98723.06
2023-11-08T11:27:37.064Z,98720.28
2023-11-08T11:30:27.982Z,98721.19
2023-11-08T11:32:59.031Z,98715.22
2023-11-08T11:35:35.202Z,98714.09
2023-11-08T11:38:08.375Z,98721.66
2023-11-08T11:40:45.186Z,98721.19
2023-11-08T11:43:33.241Z,98715.81
2023-11-08T11:46:06.417Z,98717.91
2023-11-08T11:48:34.305Z,98702.88
2023-11-08T11:51:03.108Z,98710.81
2023-11-08T11:53:31.932Z,98715.13
2023-11-08T11:56:07.080Z,98704.16
2023-11-08T11:58:34.682Z,98697.94
2023-11-08T12:01:02.036Z,98699.94
2023-11-08T12:03:29.681Z,98689.31
2023-11-08T12:06:02.056Z,98694.69
2023-11-08T12:08:29.763Z,98701.34
2023-11-08T12:11:14.704Z,98709.16
2023-11-08T12:13:55.725Z,98709.84
2023-11-08T12:16:23.156Z,98710.56
2023-11-08T12:18:52.942Z,98708.69
2023-11-08T12:21:21.228Z,98702.72
2023-11-08T12:23:50.444Z,98684.16
2023-11-08T12:26:18.211Z,98690.59
2023-11-08T12:28:47.088Z,98694.53
2023-11-08T12:31:19.797Z,98687.31
2023-11-08T12:33:47.276Z,98678.22
2023-11-08T12:36:14.490Z,98679.63
2023-11-08T12:38:41.855Z,98675.63
2023-11-08T12:41:09.742Z,98674.00
2023-11-08T12:43:59.063Z,98677.38
2023-11-08T12:46:40.055Z,98670.69
2023-11-08T12:49:20.821Z,98680.28
2023-11-08T12:51:48.613Z,98677.69
2023-11-08T12:54:17.198Z,98678.38
2023-11-08T12:56:45.050Z,98686.63
2023-11-08T12:59:12.253Z,98691.66
2023-11-08T13:01:39.931Z,98691.53
2023-11-08T13:04:08.955Z,98694.06
2023-11-08T13:06:47.366Z,98697.56
2023-11-08T13:09:15.542Z,98692.72
2023-11-08T13:11:42.996Z,98681.81
2023-11-08T13:14:10.141Z,98692.59
2023-11-08T13:16:37.935Z,98696.19
2023-11-08T13:19:05.418Z,98682.72
2023-11-08T13:21:33.414Z,98680.03
2023-11-08T13:24:05.740Z,98695.69
2023-11-08T13:26:36.171Z,98685.69
2023-11-08T13:29:04.201Z,98695.06
2023-11-08T13:31:31.805Z,98681.44
2023-11-08T13:34:00.150Z,98694.75
2023-11-08T13:36:29.216Z,98688.94
2023-11-08T13:38:57.669Z,98687.31
2023-11-08T13:41:28.621Z,98691.03
2023-11-08T13:43:55.837Z,98694.88
2023-11-08T13:46:28.653Z,98691.25
2023-11-08T13:48:57.160Z,98709.94
2023-11-08T13:51:24.703Z,98712.63
2023-11-08T13:53:52.504Z,98712.19
2023-11-08T13:56:20.007Z,98727.44
2023-11-08T13:58:51.863Z,98719.63
2023-11-08T14:01:46.086Z,98729.53
2023-11-08T14:04:15.375Z,98728.72
2023-11-08T14:06:48.367Z,98727.88
2023-11-08T14:09:21.689Z,98732.44
2023-11-08T14:11:49.150Z,98726.47
2023-11-08T14:14:17.141Z,98721.09
2023-11-08T14:16:47.767Z,98731.41
2023-11-08T14:19:14.882Z,98717.25
2023-11-08T14:21:53.007Z,98730.81
2023-11-08T14:24:21.197Z,98713.38
2023-11-08T14:26:50.904Z,98728.59
2023-11-08T14:29:27.593Z,98730.34
2023-11-08T14:32:01.057Z,98726.72
2023-11-08T14:34:29.319Z,98724.03
2023-11-08T14:36:57.665Z,98716.59
2023-11-08T14:39:27.513Z,98716.59
2023-11-08T14:41:55.381Z,98714.34
2023-11-08T14:44:22.976Z,98706.38
2023-11-08T14:46:51.030Z,98717.13
2023-11-08T14:49:18.715Z,98719.34
2023-11-08T14:51:51.127Z,98716.50
2023-11-08T14:54:18.490Z,98715.91
2023-11-08T14:56:47.856Z,98712.63
2023-11-08T15:02:00.077Z,98717.44
2023-11-08T15:04:29.697Z,98705.34
2023-11-08T15:06:57.523Z,98722.34
2023-11-08T15:09:53.431Z,98703.72
2023-11-08T15:12:21.043Z,98727.31
2023-11-08T15:14:49.642Z,98722.78
2023-11-08T15:17:16.752Z,98722.53
2023-11-08T15:19:45.323Z,98729.78
2023-11-08T15:22:13.028Z,98726.03
2023-11-08T15:24:52.921Z,98718.44
2023-11-08T15:27:20.356Z,98717.28
2023-11-08T15:29:51.957Z,98713.69
2023-11-08T15:32:19.429Z,98702.97
2023-11-08T15:34:46.886Z,98699.47
2023-11-08T15:37:14.279Z,98694.78
2023-11-08T15:39:41.985Z,98685.53
2023-11-08T15:42:09.218Z,98690.47
2023-11-08T15:44:36.598Z,98687.19
2023-11-08T15:47:04.163Z,98685.53
2023-11-08T15:49:32.284Z,98692.41
2023-11-08T15:52:00.500Z,98704.31
2023-11-08T15:54:28.859Z,98701.19
2023-11-08T15:56:56.646Z,98687.19
2023-11-08T15:59:24.541Z,98694.03
2023-11-08T16:01:52.760Z,98694.28
2023-11-08T16:04:23.932Z,98709.25
2023-11-08T16:06:52.906Z,98699.84
2023-11-08T16:09:20.802Z,98708.63
2023-11-08T16:11:48.313Z,98707.13
2023-11-08T16:14:18.748Z,98701.34
2023-11-08T16:16:46.335Z,98678.69
2023-11-08T16:19:14.412Z,98666.75
2023-11-08T16:21:49.489Z,98674.69
2023-11-08T16:24:16.667Z,98668.81
2023-11-08T16:26:49.329Z,98670.09
2023-11-08T16:29:50.009Z,98668.28
2023-11-08T16:32:34.212Z,98644.78
2023-11-08T16:34:58.585Z,98670.50
2023-11-08T16:37:27.352Z,98652.03
2023-11-08T16:39:54.834Z,98652.13
2023-11-08T16:42:23.780Z,98651.38
2023-11-08T16:45:01.596Z,98647.13
2023-11-08T16:47:35.274Z,98649.25
2023-11-08T16:50:02.711Z,98645.25
2023-11-08T16:52:32.479Z,98645.28
2023-11-08T16:55:05.611Z,98653.59
2023-11-08T16:57:33.874Z,98646.28
2023-11-08T17:00:01.121Z,98635.81
2023-11-08T17:02:29.104Z,98636.81
2023-11-08T17:04:58.818Z,98643.75
2023-11-08T17:07:40.296Z,98638.66
2023-11-08T17:10:13.414Z,98636.94
2023-11-08T17:12:43.636Z,98636.56
2023-11-08T17:15:19.467Z,98650.66
2023-11-08T17:17:47.939Z,98639.00
2023-11-08T17:20:17.405Z,98649.03
2023-11-08T17:22:44.684Z,98648.13
2023-11-08T17:25:12.192Z,98650.50
2023-11-08T17:27:45.734Z,98655.22
2023-11-08T17:30:21.003Z,98659.66
2023-11-08T17:32:48.355Z,98658.41
2023-11-08T17:35:15.925Z,98662.91
2023-11-08T17:37:45.015Z,98649.16
2023-11-08T17:40:12.878Z,98663.03
2023-11-08T17:42:40.465Z,98656.22
2023-11-08T17:45:13.298Z,98639.00
2023-11-08T17:47:46.123Z,98651.69
2023-11-08T17:50:13.650Z,98645.34
2023-11-08T17:52:43.845Z,98652.19
2023-11-08T17:55:11.880Z,98660.81
2023-11-08T17:57:41.561Z,98649.16
2023-11-08T18:00:12.635Z,98647.03
2023-11-08T18:02:41.542Z,98653.22
2023-11-08T18:05:09.530Z,98638.34
2023-11-08T18:07:37.292Z,98642.63
2023-11-08T18:10:08.118Z,98644.72
2023-11-08T18:12:35.447Z,98630.59
2023-11-08T18:15:05.993Z,98654.00
2023-11-08T18:17:34.071Z,98645.81
2023-11-08T18:20:04.183Z,98642.78
2023-11-08T18:22:34.967Z,98646.91
2023-11-08T18:25:04.787Z,98650.19
2023-11-08T18:27:33.842Z,98650.28
2023-11-08T18:30:01.985Z,98649.22
2023-11-08T18:32:33.051Z,98662.16
2023-11-08T18:35:00.503Z,98650.03
2023-11-08T18:37:27.917Z,98645.94
2023-11-08T18:39:56.794Z,98632.81
2023-11-08T18:42:23.956Z,98641.63
2023-11-08T18:44:51.133Z,98641.41
2023-11-08T18:47:20.021Z,98650.28
2023-11-08T18:49:48.449Z,98639.97
2023-11-08T18:52:15.604Z,98648.63
2023-11-08T18:54:43.023Z,98637.31
2023-11-08T18:57:10.287Z,98634.25
2023-11-08T18:59:37.794Z,98635.53
2023-11-08T19:02:07.220Z,98629.41
2023-11-08T19:04:34.694Z,98639.63
2023-11-08T19:07:01.924Z,98636.13
2023-11-08T19:09:34.425Z,98624.81
2023-11-08T19:12:02.189Z,98620.56
2023-11-08T19:14:29.647Z,98627.34
2023-11-08T19:16:58.832Z,98632.09
2023-11-08T19:19:26.793Z,98627.53
2023-11-08T19:21:54.003Z,98632.28
2023-11-08T19:24:21.291Z,98637.28
2023-11-08T19:26:48.612Z,98635.41
2023-11-08T19:29:16.782Z,98629.69
2023-11-08T19:31:44.031Z,98620.25
2023-11-08T19:34:11.430Z,98627.81
2023-11-08T19:36:38.562Z,98623.56
2023-11-08T19:39:05.728Z,98624.34
2023-11-08T19:41:35.404Z,98630.06
2023-11-08T19:44:02.686Z,98630.06
2023-11-08T19:46:29.982Z,98628.81
2023-11-08T19:48:58.037Z,98618.75
2023-11-08T19:51:26.181Z,98619.59
2023-11-08T19:53:53.830Z,98604.22
2023-11-08T19:56:20.869Z,98621.22
2023-11-08T19:58:49.700Z,98627.81
2023-11-08T20:01:17.231Z,98624.78
2023-11-08T20:03:44.916Z,98621.69
2023-11-08T20:06:12.335Z,98614.13
2023-11-08T20:08:39.783Z,98638.38
2023-11-08T20:11:13.840Z,98620.28
2023-11-08T20:13:43.639Z,98625.59
2023-11-08T20:16:11.195Z,98614.13
2023-11-08T20:18:38.505Z,98620.06
2023-11-08T20:21:06.182Z,98612.50
2023-11-08T20:23:34.051Z,98623.78
2023-11-08T20:26:02.336Z,98613.34
2023-11-08T20:28:30.262Z,98633.28
2023-11-08T20:31:04.352Z,98622.44
2023-11-08T20:33:32.199Z,98625.72
2023-11-08T20:36:00.880Z,98627.69
2023-11-08T20:38:29.337Z,98625.25
2023-11-08T20:40:57.391Z,98623.19
2023-11-08T20:43:25.561Z,98605.16
2023-11-08T20:45:54.184Z,98625.88
2023-11-08T20:48:21.393Z,98620.13
2023-11-08T20:50:48.557Z,98617.69
2023-11-08T20:53:15.657Z,98612.09
2023-11-08T20:55:45.283Z,98602.03
2023-11-08T20:58:12.483Z,98598.97
2023-11-08T21:00:39.853Z,98602.00
2023-11-08T21:03:07.017Z,98605.91
2023-11-08T21:05:34.686Z,98595.44
2023-11-08T21:08:02.611Z,98592.53
2023-11-08T21:10:29.950Z,98604.63
2023-11-08T21:12:57.473Z,98600.09
2023-11-08T21:15:27.479Z,98579.63
2023-11-08T21:17:57.622Z,98586.78
2023-11-08T21:20:24.844Z,98578.13
2023-11-08T21:22:55.267Z,98562.09
2023-11-08T21:25:23.176Z,98581.81
2023-11-08T21:27:53.965Z,98560.69
2023-11-08T21:30:21.639Z,98589.41
2023-11-08T21:32:49.224Z,98586.94
2023-11-08T21:35:17.011Z,98588.59
2023-11-08T21:37:44.748Z,98592.72
2023-11-08T21:40:12.626Z,98594.78
2023-11-08T21:42:40.249Z,98594.44
2023-11-08T21:45:08.768Z,98594.78
2023-11-08T21:47:37.302Z,98591.50
2023-11-08T21:50:04.994Z,98583.94
2023-11-08T21:52:33.219Z,98582.16
2023-11-08T21:55:00.336Z,98576.63
2023-11-08T21:57:27.446Z,98578.41
2023-11-08T21:59:57.100Z,98581.97
2023-11-08T22:02:24.532Z,98577.88
2023-11-08T22:04:51.618Z,98572.56
2023-11-08T22:07:18.769Z,98580.78
2023-11-08T22:09:46.686Z,98581.81
2023-11-08T22:12:13.766Z,98576.91
2023-11-08T22:14:40.987Z,98571.56
2023-11-08T22:17:08.292Z,98570.94
2023-11-08T22:19:35.462Z,98568.75
2023-11-08T22:22:03.743Z,98566.91
2023-11-08T22:24:31.444Z,98562.59
2023-11-08T22:26:58.769Z,98565.84
2023-11-08T22:29:26.003Z,98539.88
2023-11-08T22:31:54.424Z,98553.41
2023-11-08T22:34:23.086Z,98564.34
2023-11-08T22:36:50.448Z,98551.25
2023-11-08T22:39:17.634Z,98562.50
2023-11-08T22:41:47.782Z,98554.56
2023-11-08T22:44:15.384Z,98555.00
2023-11-08T22:46:44.327Z,98554.38
2023-11-08T22:49:11.857Z,98557.88
2023-11-08T22:51:39.174Z,98558.91
2023-11-08T22:54:09.552Z,98552.53
2023-11-08T22:56:37.148Z,98544.13
2023-11-08T22:59:04.395Z,98544.34
2023-11-08T23:01:34.305Z,98539.88
2023-11-08T23:04:05.059Z,98540.09
2023-11-08T23:06:33.842Z,98542.72
2023-11-08T23:09:06.507Z,98545.78
2023-11-08T23:11:34.923Z,98538.59
2023-11-08T23:14:01.987Z,98515.44
2023-11-08T23:16:29.238Z,98523.63
2023-11-08T23:18:57.029Z,98511.75
2023-11-08T23:21:24.371Z,98538.63
2023-11-08T23:23:52.772Z,98535.78
2023-11-08T23:26:20.779Z,98525.13
2023-11-08T23:28:48.193Z,98525.94
2023-11-08T23:31:16.361Z,98527.16
2023-11-08T23:33:43.403Z,98525.13
2023-11-08T23:36:13.702Z,98531.66
2023-11-08T23:38:51.395Z,98524.84
2023-11-08T23:41:18.470Z,98521.34
2023-11-08T23:43:49.193Z,98525.63
2023-11-08T23:46:17.228Z,98526.25
2023-11-08T23:48:45.364Z,98520.13
2023-11-08T23:51:14.206Z,98528.75
2023-11-08T23:53:41.503Z,98509.25
2023-11-08T23:56:09.100Z,98522.19
2023-11-08T23:58:36.309Z,98508.66
